sensor_id;sensor_type;location;lat;lon;timestamp;P1;durP1;ratioP1;P2;durP2;ratioP2
4921;SDS011;16625;53.624;10.106;2023-03-11T00:00:37;15.50;;;9.10;;
4921;SDS011;16625;53.624;10.106;2023-03-11T00:03:05;14.97;;;8.60;;
4921;SDS011;16625;53.624;10.106;2023-03-11T00:05:35;8.43;;;6.13;;
4921;SDS011;16625;53.624;10.106;2023-03-11T00:08:04;10.80;;;8.53;;
4921;SDS011;16625;53.624;10.106;2023-03-11T00:10:33;17.33;;;10.40;;
4921;SDS011;16625;53.624;10.106;2023-03-11T00:13:02;17.20;;;9.53;;
4921;SDS011;16625;53.624;10.106;2023-03-11T00:15:30;8.30;;;4.97;;
4921;SDS011;16625;53.624;10.106;2023-03-11T00:17:59;13.20;;;9.53;;
4921;SDS011;16625;53.624;10.106;2023-03-11T00:20:27;16.63;;;11.90;;
4921;SDS011;16625;53.624;10.106;2023-03-11T00:22:56;16.90;;;9.17;;
4921;SDS011;16625;53.624;10.106;2023-03-11T00:25:25;21.27;;;12.90;;
4921;SDS011;16625;53.624;10.106;2023-03-11T00:27:53;16.77;;;9.70;;
4921;SDS011;16625;53.624;10.106;2023-03-11T00:30:21;20.53;;;10.53;;
4921;SDS011;16625;53.624;10.106;2023-03-11T00:32:51;16.10;;;8.90;;
4921;SDS011;16625;53.624;10.106;2023-03-11T00:35:22;21.67;;;11.60;;
4921;SDS011;16625;53.624;10.106;2023-03-11T00:37:51;19.00;;;11.60;;
4921;SDS011;16625;53.624;10.106;2023-03-11T00:40:21;24.40;;;12.80;;
4921;SDS011;16625;53.624;10.106;2023-03-11T00:42:49;18.37;;;11.53;;
4921;SDS011;16625;53.624;10.106;2023-03-11T00:45:16;11.70;;;8.00;;
4921;SDS011;16625;53.624;10.106;2023-03-11T00:47:43;15.07;;;9.00;;
4921;SDS011;16625;53.624;10.106;2023-03-11T00:50:13;17.33;;;10.50;;
4921;SDS011;16625;53.624;10.106;2023-03-11T00:52:44;27.90;;;15.57;;
4921;SDS011;16625;53.624;10.106;2023-03-11T00:55:12;23.07;;;12.70;;
4921;SDS011;16625;53.624;10.106;2023-03-11T00:57:41;17.80;;;11.00;;
4921;SDS011;16625;53.624;10.106;2023-03-11T01:00:11;30.07;;;13.03;;
4921;SDS011;16625;53.624;10.106;2023-03-11T01:02:39;25.17;;;12.80;;
4921;SDS011;16625;53.624;10.106;2023-03-11T01:05:06;19.40;;;9.10;;
4921;SDS011;16625;53.624;10.106;2023-03-11T01:07:34;14.93;;;10.40;;
4921;SDS011;16625;53.624;10.106;2023-03-11T01:10:03;17.23;;;10.47;;
4921;SDS011;16625;53.624;10.106;2023-03-11T01:12:31;16.30;;;11.40;;
4921;SDS011;16625;53.624;10.106;2023-03-11T01:15:00;23.10;;;12.37;;
4921;SDS011;16625;53.624;10.106;2023-03-11T01:17:28;12.50;;;8.67;;
4921;SDS011;16625;53.624;10.106;2023-03-11T01:19:55;21.67;;;12.27;;
4921;SDS011;16625;53.624;10.106;2023-03-11T01:22:22;19.57;;;13.10;;
4921;SDS011;16625;53.624;10.106;2023-03-11T01:24:49;10.83;;;8.90;;
4921;SDS011;16625;53.624;10.106;2023-03-11T01:27:18;21.40;;;12.57;;
4921;SDS011;16625;53.624;10.106;2023-03-11T01:29:45;23.33;;;14.17;;
4921;SDS011;16625;53.624;10.106;2023-03-11T01:32:12;11.57;;;8.47;;
4921;SDS011;16625;53.624;10.106;2023-03-11T01:34:39;12.63;;;9.80;;
4921;SDS011;16625;53.624;10.106;2023-03-11T01:37:06;7.70;;;5.03;;
4921;SDS011;16625;53.624;10.106;2023-03-11T01:39:32;27.00;;;15.50;;
4921;SDS011;16625;53.624;10.106;2023-03-11T01:41:59;20.67;;;11.00;;
4921;SDS011;16625;53.624;10.106;2023-03-11T01:44:31;17.07;;;8.43;;
4921;SDS011;16625;53.624;10.106;2023-03-11T01:49:57;18.63;;;10.43;;
4921;SDS011;16625;53.624;10.106;2023-03-11T01:52:24;35.10;;;10.43;;
4921;SDS011;16625;53.624;10.106;2023-03-11T01:54:51;15.53;;;7.67;;
4921;SDS011;16625;53.624;10.106;2023-03-11T01:57:18;22.40;;;14.00;;
4921;SDS011;16625;53.624;10.106;2023-03-11T01:59:49;23.77;;;12.97;;
4921;SDS011;16625;53.624;10.106;2023-03-11T02:02:22;13.43;;;10.47;;
4921;SDS011;16625;53.624;10.106;2023-03-11T02:04:51;10.50;;;8.40;;
4921;SDS011;16625;53.624;10.106;2023-03-11T02:07:20;12.27;;;9.30;;
4921;SDS011;16625;53.624;10.106;2023-03-11T02:09:46;27.97;;;15.53;;
4921;SDS011;16625;53.624;10.106;2023-03-11T02:12:15;17.87;;;11.13;;
4921;SDS011;16625;53.624;10.106;2023-03-11T02:14:43;21.03;;;13.37;;
4921;SDS011;16625;53.624;10.106;2023-03-11T02:17:13;14.07;;;9.27;;
4921;SDS011;16625;53.624;10.106;2023-03-11T02:19:48;14.77;;;10.17;;
4921;SDS011;16625;53.624;10.106;2023-03-11T02:22:33;19.33;;;11.77;;
4921;SDS011;16625;53.624;10.106;2023-03-11T02:25:02;11.60;;;7.57;;
4921;SDS011;16625;53.624;10.106;2023-03-11T02:27:35;28.13;;;15.47;;
4921;SDS011;16625;53.624;10.106;2023-03-11T02:30:09;32.00;;;15.30;;
4921;SDS011;16625;53.624;10.106;2023-03-11T02:32:39;13.77;;;8.77;;
4921;SDS011;16625;53.624;10.106;2023-03-11T02:35:08;9.47;;;6.33;;
4921;SDS011;16625;53.624;10.106;2023-03-11T02:37:35;15.87;;;10.30;;
4921;SDS011;16625;53.624;10.106;2023-03-11T02:40:26;14.67;;;9.80;;
4921;SDS011;16625;53.624;10.106;2023-03-11T02:43:06;12.73;;;7.93;;
4921;SDS011;16625;53.624;10.106;2023-03-11T02:45:35;19.30;;;11.50;;
4921;SDS011;16625;53.624;10.106;2023-03-11T02:48:04;21.07;;;12.87;;
4921;SDS011;16625;53.624;10.106;2023-03-11T02:50:35;24.03;;;15.20;;
4921;SDS011;16625;53.624;10.106;2023-03-11T02:53:03;16.17;;;8.50;;
4921;SDS011;16625;53.624;10.106;2023-03-11T02:55:30;21.23;;;11.57;;
4921;SDS011;16625;53.624;10.106;2023-03-11T02:57:57;16.30;;;11.17;;
4921;SDS011;16625;53.624;10.106;2023-03-11T03:00:26;14.80;;;9.37;;
4921;SDS011;16625;53.624;10.106;2023-03-11T03:02:56;23.23;;;13.00;;
4921;SDS011;16625;53.624;10.106;2023-03-11T03:05:23;14.80;;;9.53;;
4921;SDS011;16625;53.624;10.106;2023-03-11T03:07:50;14.57;;;10.60;;
4921;SDS011;16625;53.624;10.106;2023-03-11T03:10:19;12.87;;;8.87;;
4921;SDS011;16625;53.624;10.106;2023-03-11T03:12:47;14.70;;;9.40;;
4921;SDS011;16625;53.624;10.106;2023-03-11T03:15:14;11.37;;;7.60;;
4921;SDS011;16625;53.624;10.106;2023-03-11T03:17:43;11.93;;;8.67;;
4921;SDS011;16625;53.624;10.106;2023-03-11T03:20:10;11.50;;;7.67;;
4921;SDS011;16625;53.624;10.106;2023-03-11T03:22:38;16.53;;;10.60;;
4921;SDS011;16625;53.624;10.106;2023-03-11T03:25:07;13.93;;;7.10;;
4921;SDS011;16625;53.624;10.106;2023-03-11T03:27:35;15.37;;;9.10;;
4921;SDS011;16625;53.624;10.106;2023-03-11T03:30:02;15.90;;;9.17;;
4921;SDS011;16625;53.624;10.106;2023-03-11T03:32:30;18.20;;;8.13;;
4921;SDS011;16625;53.624;10.106;2023-03-11T03:35:00;11.73;;;7.07;;
4921;SDS011;16625;53.624;10.106;2023-03-11T03:37:28;17.00;;;10.03;;
4921;SDS011;16625;53.624;10.106;2023-03-11T03:39:58;10.90;;;5.07;;
4921;SDS011;16625;53.624;10.106;2023-03-11T03:42:26;11.23;;;8.00;;
4921;SDS011;16625;53.624;10.106;2023-03-11T03:44:55;8.07;;;5.10;;
4921;SDS011;16625;53.624;10.106;2023-03-11T03:47:22;13.80;;;8.07;;
4921;SDS011;16625;53.624;10.106;2023-03-11T03:49:49;19.17;;;10.53;;
4921;SDS011;16625;53.624;10.106;2023-03-11T03:52:18;12.33;;;7.67;;
4921;SDS011;16625;53.624;10.106;2023-03-11T03:54:45;21.73;;;11.53;;
4921;SDS011;16625;53.624;10.106;2023-03-11T03:57:12;12.33;;;7.87;;
4921;SDS011;16625;53.624;10.106;2023-03-11T03:59:39;14.90;;;10.00;;
4921;SDS011;16625;53.624;10.106;2023-03-11T04:02:06;16.57;;;10.57;;
4921;SDS011;16625;53.624;10.106;2023-03-11T04:04:33;15.63;;;10.27;;
4921;SDS011;16625;53.624;10.106;2023-03-11T04:07:01;15.90;;;9.63;;
4921;SDS011;16625;53.624;10.106;2023-03-11T04:09:30;6.70;;;5.20;;
4921;SDS011;16625;53.624;10.106;2023-03-11T04:11:57;9.60;;;5.90;;
4921;SDS011;16625;53.624;10.106;2023-03-11T04:14:26;9.10;;;6.30;;
4921;SDS011;16625;53.624;10.106;2023-03-11T04:16:53;12.30;;;9.30;;
4921;SDS011;16625;53.624;10.106;2023-03-11T04:19:22;12.70;;;8.77;;
4921;SDS011;16625;53.624;10.106;2023-03-11T04:21:50;16.90;;;10.10;;
4921;SDS011;16625;53.624;10.106;2023-03-11T04:24:17;17.60;;;10.33;;
4921;SDS011;16625;53.624;10.106;2023-03-11T04:26:45;11.93;;;9.40;;
4921;SDS011;16625;53.624;10.106;2023-03-11T04:29:12;12.73;;;9.00;;
4921;SDS011;16625;53.624;10.106;2023-03-11T04:31:39;7.13;;;5.57;;
4921;SDS011;16625;53.624;10.106;2023-03-11T04:34:06;11.80;;;7.57;;
4921;SDS011;16625;53.624;10.106;2023-03-11T04:36:33;19.63;;;11.83;;
4921;SDS011;16625;53.624;10.106;2023-03-11T04:39:00;11.63;;;8.10;;
4921;SDS011;16625;53.624;10.106;2023-03-11T04:41:29;14.80;;;8.73;;
4921;SDS011;16625;53.624;10.106;2023-03-11T04:43:58;17.90;;;9.80;;
4921;SDS011;16625;53.624;10.106;2023-03-11T04:46:25;14.50;;;9.77;;
4921;SDS011;16625;53.624;10.106;2023-03-11T04:48:52;17.83;;;10.60;;
4921;SDS011;16625;53.624;10.106;2023-03-11T04:51:19;5.90;;;4.90;;
4921;SDS011;16625;53.624;10.106;2023-03-11T04:53:46;13.50;;;9.40;;
4921;SDS011;16625;53.624;10.106;2023-03-11T04:56:13;19.10;;;11.10;;
4921;SDS011;16625;53.624;10.106;2023-03-11T04:58:40;10.93;;;7.00;;
4921;SDS011;16625;53.624;10.106;2023-03-11T05:01:08;12.43;;;8.50;;
4921;SDS011;16625;53.624;10.106;2023-03-11T05:03:36;17.93;;;11.03;;
4921;SDS011;16625;53.624;10.106;2023-03-11T05:06:04;9.70;;;6.20;;
4921;SDS011;16625;53.624;10.106;2023-03-11T05:08:33;19.83;;;10.53;;
4921;SDS011;16625;53.624;10.106;2023-03-11T05:11:01;15.73;;;10.17;;
4921;SDS011;16625;53.624;10.106;2023-03-11T05:13:28;18.30;;;10.50;;
4921;SDS011;16625;53.624;10.106;2023-03-11T05:15:57;17.50;;;9.10;;
4921;SDS011;16625;53.624;10.106;2023-03-11T05:18:25;15.67;;;9.80;;
4921;SDS011;16625;53.624;10.106;2023-03-11T05:20:56;9.17;;;6.90;;
4921;SDS011;16625;53.624;10.106;2023-03-11T05:23:26;14.07;;;9.47;;
4921;SDS011;16625;53.624;10.106;2023-03-11T05:25:53;9.87;;;7.07;;
4921;SDS011;16625;53.624;10.106;2023-03-11T05:28:20;17.37;;;10.30;;
4921;SDS011;16625;53.624;10.106;2023-03-11T05:30:47;21.07;;;12.00;;
4921;SDS011;16625;53.624;10.106;2023-03-11T05:33:14;9.73;;;7.50;;
4921;SDS011;16625;53.624;10.106;2023-03-11T05:35:42;6.40;;;5.80;;
4921;SDS011;16625;53.624;10.106;2023-03-11T05:38:09;8.60;;;6.20;;
4921;SDS011;16625;53.624;10.106;2023-03-11T05:40:36;18.27;;;11.07;;
4921;SDS011;16625;53.624;10.106;2023-03-11T05:43:03;9.33;;;7.20;;
4921;SDS011;16625;53.624;10.106;2023-03-11T05:45:30;10.17;;;6.50;;
4921;SDS011;16625;53.624;10.106;2023-03-11T05:47:57;8.93;;;7.63;;
4921;SDS011;16625;53.624;10.106;2023-03-11T05:50:24;11.73;;;8.17;;
4921;SDS011;16625;53.624;10.106;2023-03-11T05:52:53;17.37;;;10.03;;
4921;SDS011;16625;53.624;10.106;2023-03-11T05:55:21;13.47;;;7.43;;
4921;SDS011;16625;53.624;10.106;2023-03-11T05:57:49;11.67;;;7.10;;
4921;SDS011;16625;53.624;10.106;2023-03-11T06:00:17;20.00;;;9.57;;
4921;SDS011;16625;53.624;10.106;2023-03-11T06:02:44;12.60;;;8.00;;
4921;SDS011;16625;53.624;10.106;2023-03-11T06:05:11;13.40;;;8.37;;
4921;SDS011;16625;53.624;10.106;2023-03-11T06:07:39;14.00;;;7.67;;
4921;SDS011;16625;53.624;10.106;2023-03-11T06:10:08;12.10;;;8.37;;
4921;SDS011;16625;53.624;10.106;2023-03-11T06:12:38;11.63;;;7.73;;
4921;SDS011;16625;53.624;10.106;2023-03-11T06:15:06;6.43;;;5.23;;
4921;SDS011;16625;53.624;10.106;2023-03-11T06:17:33;6.70;;;5.33;;
4921;SDS011;16625;53.624;10.106;2023-03-11T06:20:03;27.27;;;9.90;;
4921;SDS011;16625;53.624;10.106;2023-03-11T06:22:33;14.50;;;8.13;;
4921;SDS011;16625;53.624;10.106;2023-03-11T06:25:00;11.50;;;7.90;;
4921;SDS011;16625;53.624;10.106;2023-03-11T06:27:31;20.57;;;10.60;;
4921;SDS011;16625;53.624;10.106;2023-03-11T06:29:58;11.27;;;7.70;;
4921;SDS011;16625;53.624;10.106;2023-03-11T06:32:25;8.77;;;6.23;;
4921;SDS011;16625;53.624;10.106;2023-03-11T06:34:53;15.63;;;9.00;;
4921;SDS011;16625;53.624;10.106;2023-03-11T06:37:20;15.90;;;8.87;;
4921;SDS011;16625;53.624;10.106;2023-03-11T06:39:50;18.33;;;10.80;;
4921;SDS011;16625;53.624;10.106;2023-03-11T06:42:17;9.10;;;6.60;;
4921;SDS011;16625;53.624;10.106;2023-03-11T06:44:47;22.30;;;11.37;;
4921;SDS011;16625;53.624;10.106;2023-03-11T06:47:14;16.40;;;10.63;;
4921;SDS011;16625;53.624;10.106;2023-03-11T06:49:41;14.77;;;8.57;;
4921;SDS011;16625;53.624;10.106;2023-03-11T06:52:08;15.40;;;9.43;;
4921;SDS011;16625;53.624;10.106;2023-03-11T06:54:35;11.80;;;7.60;;
4921;SDS011;16625;53.624;10.106;2023-03-11T06:57:02;7.87;;;5.73;;
4921;SDS011;16625;53.624;10.106;2023-03-11T06:59:32;12.47;;;7.07;;
4921;SDS011;16625;53.624;10.106;2023-03-11T07:02:00;14.60;;;9.20;;
4921;SDS011;16625;53.624;10.106;2023-03-11T07:04:28;7.10;;;5.40;;
4921;SDS011;16625;53.624;10.106;2023-03-11T07:06:59;16.77;;;10.77;;
4921;SDS011;16625;53.624;10.106;2023-03-11T07:09:26;14.13;;;8.30;;
4921;SDS011;16625;53.624;10.106;2023-03-11T07:11:53;6.70;;;6.00;;
4921;SDS011;16625;53.624;10.106;2023-03-11T07:14:20;17.10;;;8.40;;
4921;SDS011;16625;53.624;10.106;2023-03-11T07:16:47;11.00;;;7.90;;
4921;SDS011;16625;53.624;10.106;2023-03-11T07:19:16;6.80;;;5.57;;
4921;SDS011;16625;53.624;10.106;2023-03-11T07:21:43;10.53;;;7.50;;
4921;SDS011;16625;53.624;10.106;2023-03-11T07:24:11;10.00;;;6.43;;
4921;SDS011;16625;53.624;10.106;2023-03-11T07:26:39;10.73;;;8.63;;
4921;SDS011;16625;53.624;10.106;2023-03-11T07:29:07;11.20;;;7.37;;
4921;SDS011;16625;53.624;10.106;2023-03-11T07:31:35;15.33;;;10.00;;
4921;SDS011;16625;53.624;10.106;2023-03-11T07:34:03;8.27;;;5.67;;
4921;SDS011;16625;53.624;10.106;2023-03-11T07:36:37;8.37;;;5.90;;
4921;SDS011;16625;53.624;10.106;2023-03-11T07:39:06;17.40;;;10.83;;
4921;SDS011;16625;53.624;10.106;2023-03-11T07:41:34;21.50;;;8.60;;
4921;SDS011;16625;53.624;10.106;2023-03-11T07:44:02;18.23;;;8.40;;
4921;SDS011;16625;53.624;10.106;2023-03-11T07:46:30;14.37;;;9.03;;
4921;SDS011;16625;53.624;10.106;2023-03-11T07:48:57;6.97;;;4.37;;
4921;SDS011;16625;53.624;10.106;2023-03-11T07:51:26;16.70;;;8.63;;
4921;SDS011;16625;53.624;10.106;2023-03-11T07:53:56;4.97;;;4.43;;
4921;SDS011;16625;53.624;10.106;2023-03-11T07:56:25;5.80;;;4.10;;
4921;SDS011;16625;53.624;10.106;2023-03-11T07:58:53;14.83;;;7.73;;
4921;SDS011;16625;53.624;10.106;2023-03-11T08:01:21;5.47;;;4.87;;
4921;SDS011;16625;53.624;10.106;2023-03-11T08:03:50;10.03;;;6.60;;
4921;SDS011;16625;53.624;10.106;2023-03-11T08:06:21;8.63;;;6.70;;
4921;SDS011;16625;53.624;10.106;2023-03-11T08:08:49;12.30;;;7.00;;
4921;SDS011;16625;53.624;10.106;2023-03-11T08:11:18;13.67;;;7.93;;
4921;SDS011;16625;53.624;10.106;2023-03-11T08:13:46;15.63;;;6.50;;
4921;SDS011;16625;53.624;10.106;2023-03-11T08:16:15;10.67;;;6.93;;
4921;SDS011;16625;53.624;10.106;2023-03-11T08:18:43;17.50;;;6.13;;
4921;SDS011;16625;53.624;10.106;2023-03-11T08:21:12;8.23;;;5.13;;
4921;SDS011;16625;53.624;10.106;2023-03-11T08:23:40;9.40;;;6.43;;
4921;SDS011;16625;53.624;10.106;2023-03-11T08:26:08;6.47;;;4.70;;
4921;SDS011;16625;53.624;10.106;2023-03-11T08:28:38;16.47;;;8.27;;
4921;SDS011;16625;53.624;10.106;2023-03-11T08:31:10;8.93;;;6.03;;
4921;SDS011;16625;53.624;10.106;2023-03-11T08:33:39;14.47;;;7.23;;
4921;SDS011;16625;53.624;10.106;2023-03-11T08:36:06;9.50;;;7.10;;
4921;SDS011;16625;53.624;10.106;2023-03-11T08:38:33;10.00;;;5.60;;
4921;SDS011;16625;53.624;10.106;2023-03-11T08:41:00;8.60;;;5.67;;
4921;SDS011;16625;53.624;10.106;2023-03-11T08:43:27;10.87;;;6.43;;
4921;SDS011;16625;53.624;10.106;2023-03-11T08:45:58;10.93;;;7.30;;
4921;SDS011;16625;53.624;10.106;2023-03-11T08:48:26;10.80;;;5.70;;
4921;SDS011;16625;53.624;10.106;2023-03-11T08:50:53;6.63;;;4.60;;
4921;SDS011;16625;53.624;10.106;2023-03-11T08:53:20;7.53;;;5.10;;
4921;SDS011;16625;53.624;10.106;2023-03-11T08:55:48;8.97;;;4.10;;
4921;SDS011;16625;53.624;10.106;2023-03-11T08:58:15;6.27;;;5.10;;
4921;SDS011;16625;53.624;10.106;2023-03-11T09:00:42;9.47;;;6.10;;
4921;SDS011;16625;53.624;10.106;2023-03-11T09:03:10;6.97;;;5.87;;
4921;SDS011;16625;53.624;10.106;2023-03-11T09:05:37;15.00;;;5.90;;
4921;SDS011;16625;53.624;10.106;2023-03-11T09:08:05;5.83;;;4.30;;
4921;SDS011;16625;53.624;10.106;2023-03-11T09:10:32;8.00;;;5.40;;
4921;SDS011;16625;53.624;10.106;2023-03-11T09:12:59;7.83;;;4.63;;
4921;SDS011;16625;53.624;10.106;2023-03-11T09:15:26;5.30;;;3.93;;
4921;SDS011;16625;53.624;10.106;2023-03-11T09:17:53;12.33;;;4.87;;
4921;SDS011;16625;53.624;10.106;2023-03-11T09:20:21;6.67;;;5.07;;
4921;SDS011;16625;53.624;10.106;2023-03-11T09:22:50;4.10;;;3.50;;
4921;SDS011;16625;53.624;10.106;2023-03-11T09:25:17;6.97;;;5.90;;
4921;SDS011;16625;53.624;10.106;2023-03-11T09:27:43;11.00;;;6.10;;
4921;SDS011;16625;53.624;10.106;2023-03-11T09:30:11;6.67;;;4.33;;
4921;SDS011;16625;53.624;10.106;2023-03-11T09:32:38;9.80;;;3.40;;
4921;SDS011;16625;53.624;10.106;2023-03-11T09:35:05;4.63;;;4.23;;
4921;SDS011;16625;53.624;10.106;2023-03-11T09:37:33;5.50;;;3.73;;
4921;SDS011;16625;53.624;10.106;2023-03-11T09:40:00;6.07;;;4.80;;
4921;SDS011;16625;53.624;10.106;2023-03-11T09:42:29;7.30;;;4.23;;
4921;SDS011;16625;53.624;10.106;2023-03-11T09:45:03;5.73;;;4.53;;
4921;SDS011;16625;53.624;10.106;2023-03-11T09:47:37;7.50;;;4.53;;
4921;SDS011;16625;53.624;10.106;2023-03-11T09:50:10;5.37;;;4.10;;
4921;SDS011;16625;53.624;10.106;2023-03-11T09:52:43;7.03;;;4.50;;
4921;SDS011;16625;53.624;10.106;2023-03-11T09:55:37;6.80;;;4.47;;
4921;SDS011;16625;53.624;10.106;2023-03-11T09:58:12;5.40;;;4.10;;
4921;SDS011;16625;53.624;10.106;2023-03-11T10:00:42;7.73;;;4.40;;
4921;SDS011;16625;53.624;10.106;2023-03-11T10:06:00;5.47;;;3.53;;
4921;SDS011;16625;53.624;10.106;2023-03-11T10:08:33;6.90;;;4.57;;
4921;SDS011;16625;53.624;10.106;2023-03-11T10:11:14;5.57;;;4.00;;
4921;SDS011;16625;53.624;10.106;2023-03-11T10:13:51;4.73;;;4.10;;
4921;SDS011;16625;53.624;10.106;2023-03-11T10:16:26;6.83;;;4.47;;
4921;SDS011;16625;53.624;10.106;2023-03-11T10:19:01;10.00;;;4.57;;
4921;SDS011;16625;53.624;10.106;2023-03-11T10:21:37;7.10;;;4.10;;
4921;SDS011;16625;53.624;10.106;2023-03-11T10:24:15;10.90;;;4.77;;
4921;SDS011;16625;53.624;10.106;2023-03-11T10:26:53;9.73;;;4.10;;
4921;SDS011;16625;53.624;10.106;2023-03-11T10:29:25;4.57;;;4.13;;
4921;SDS011;16625;53.624;10.106;2023-03-11T10:31:56;4.53;;;4.10;;
4921;SDS011;16625;53.624;10.106;2023-03-11T10:34:28;4.87;;;2.97;;
4921;SDS011;16625;53.624;10.106;2023-03-11T10:37:02;9.30;;;4.60;;
4921;SDS011;16625;53.624;10.106;2023-03-11T10:39:33;7.33;;;5.07;;
4921;SDS011;16625;53.624;10.106;2023-03-11T10:42:01;7.97;;;3.97;;
4921;SDS011;16625;53.624;10.106;2023-03-11T10:44:31;6.10;;;3.50;;
4921;SDS011;16625;53.624;10.106;2023-03-11T10:46:59;4.03;;;3.63;;
4921;SDS011;16625;53.624;10.106;2023-03-11T10:49:27;2.73;;;2.47;;
4921;SDS011;16625;53.624;10.106;2023-03-11T10:51:55;2.63;;;2.40;;
4921;SDS011;16625;53.624;10.106;2023-03-11T10:54:23;3.93;;;2.73;;
4921;SDS011;16625;53.624;10.106;2023-03-11T10:56:56;5.50;;;3.87;;
4921;SDS011;16625;53.624;10.106;2023-03-11T10:59:26;4.50;;;2.80;;
4921;SDS011;16625;53.624;10.106;2023-03-11T11:01:56;4.60;;;3.70;;
4921;SDS011;16625;53.624;10.106;2023-03-11T11:04:26;3.90;;;3.50;;
4921;SDS011;16625;53.624;10.106;2023-03-11T11:06:56;5.03;;;3.30;;
4921;SDS011;16625;53.624;10.106;2023-03-11T11:09:24;7.63;;;2.97;;
4921;SDS011;16625;53.624;10.106;2023-03-11T11:12:04;4.67;;;3.90;;
4921;SDS011;16625;53.624;10.106;2023-03-11T11:14:43;7.03;;;3.50;;
4921;SDS011;16625;53.624;10.106;2023-03-11T11:17:18;5.37;;;3.13;;
4921;SDS011;16625;53.624;10.106;2023-03-11T11:19:49;5.93;;;3.10;;
4921;SDS011;16625;53.624;10.106;2023-03-11T11:22:18;3.70;;;3.40;;
4921;SDS011;16625;53.624;10.106;2023-03-11T11:24:47;5.83;;;4.03;;
4921;SDS011;16625;53.624;10.106;2023-03-11T11:27:18;7.80;;;2.97;;
4921;SDS011;16625;53.624;10.106;2023-03-11T11:29:47;17.97;;;4.10;;
4921;SDS011;16625;53.624;10.106;2023-03-11T11:32:31;6.73;;;4.00;;
4921;SDS011;16625;53.624;10.106;2023-03-11T11:34:58;8.37;;;3.70;;
4921;SDS011;16625;53.624;10.106;2023-03-11T11:37:27;6.50;;;3.80;;
4921;SDS011;16625;53.624;10.106;2023-03-11T11:39:57;7.73;;;3.67;;
4921;SDS011;16625;53.624;10.106;2023-03-11T11:42:35;4.67;;;3.10;;
4921;SDS011;16625;53.624;10.106;2023-03-11T11:45:04;8.23;;;3.53;;
4921;SDS011;16625;53.624;10.106;2023-03-11T11:47:40;4.30;;;3.43;;
4921;SDS011;16625;53.624;10.106;2023-03-11T11:50:13;6.10;;;3.20;;
4921;SDS011;16625;53.624;10.106;2023-03-11T11:52:43;3.10;;;2.33;;
4921;SDS011;16625;53.624;10.106;2023-03-11T11:55:17;6.20;;;3.50;;
4921;SDS011;16625;53.624;10.106;2023-03-11T11:57:49;14.00;;;4.03;;
4921;SDS011;16625;53.624;10.106;2023-03-11T12:00:17;3.13;;;2.80;;
4921;SDS011;16625;53.624;10.106;2023-03-11T12:02:51;7.53;;;3.30;;
4921;SDS011;16625;53.624;10.106;2023-03-11T12:05:30;8.57;;;3.30;;
4921;SDS011;16625;53.624;10.106;2023-03-11T12:08:04;5.23;;;3.20;;
4921;SDS011;16625;53.624;10.106;2023-03-11T12:10:41;4.10;;;3.00;;
4921;SDS011;16625;53.624;10.106;2023-03-11T12:13:20;7.47;;;3.43;;
4921;SDS011;16625;53.624;10.106;2023-03-11T12:16:09;10.57;;;2.70;;
4921;SDS011;16625;53.624;10.106;2023-03-11T12:18:46;3.53;;;3.07;;
4921;SDS011;16625;53.624;10.106;2023-03-11T12:21:19;3.63;;;2.40;;
4921;SDS011;16625;53.624;10.106;2023-03-11T12:24:01;2.43;;;2.20;;
4921;SDS011;16625;53.624;10.106;2023-03-11T12:26:45;3.20;;;2.20;;
4921;SDS011;16625;53.624;10.106;2023-03-11T12:29:18;3.53;;;1.90;;
4921;SDS011;16625;53.624;10.106;2023-03-11T12:31:51;2.73;;;2.13;;
4921;SDS011;16625;53.624;10.106;2023-03-11T12:34:20;2.03;;;1.67;;
4921;SDS011;16625;53.624;10.106;2023-03-11T12:36:49;7.20;;;1.70;;
4921;SDS011;16625;53.624;10.106;2023-03-11T12:39:21;1.97;;;1.87;;
4921;SDS011;16625;53.624;10.106;2023-03-11T12:44:43;4.37;;;1.93;;
4921;SDS011;16625;53.624;10.106;2023-03-11T12:47:18;6.37;;;2.20;;
4921;SDS011;16625;53.624;10.106;2023-03-11T12:49:49;3.80;;;2.30;;
4921;SDS011;16625;53.624;10.106;2023-03-11T12:52:20;4.70;;;4.03;;
4921;SDS011;16625;53.624;10.106;2023-03-11T13:01:06;7.70;;;2.77;;
4921;SDS011;16625;53.624;10.106;2023-03-11T13:03:58;2.33;;;2.10;;
4921;SDS011;16625;53.624;10.106;2023-03-11T13:06:41;3.30;;;2.00;;
4921;SDS011;16625;53.624;10.106;2023-03-11T13:09:27;5.10;;;2.37;;
4921;SDS011;16625;53.624;10.106;2023-03-11T13:11:54;3.00;;;1.97;;
4921;SDS011;16625;53.624;10.106;2023-03-11T13:17:26;3.40;;;2.50;;
4921;SDS011;16625;53.624;10.106;2023-03-11T13:19:56;4.40;;;2.17;;
4921;SDS011;16625;53.624;10.106;2023-03-11T13:22:40;5.83;;;2.00;;
4921;SDS011;16625;53.624;10.106;2023-03-11T13:28:17;2.77;;;2.00;;
4921;SDS011;16625;53.624;10.106;2023-03-11T13:30:54;4.50;;;2.40;;
4921;SDS011;16625;53.624;10.106;2023-03-11T13:33:32;8.30;;;2.00;;
4921;SDS011;16625;53.624;10.106;2023-03-11T13:36:13;4.30;;;1.93;;
4921;SDS011;16625;53.624;10.106;2023-03-11T13:39:17;4.93;;;2.10;;
4921;SDS011;16625;53.624;10.106;2023-03-11T13:41:49;9.70;;;2.30;;
4921;SDS011;16625;53.624;10.106;2023-03-11T13:44:21;1.60;;;1.50;;
4921;SDS011;16625;53.624;10.106;2023-03-11T13:46:55;3.33;;;1.90;;
4921;SDS011;16625;53.624;10.106;2023-03-11T13:49:32;3.23;;;1.90;;
4921;SDS011;16625;53.624;10.106;2023-03-11T13:52:06;14.43;;;2.30;;
4921;SDS011;16625;53.624;10.106;2023-03-11T13:54:37;1.67;;;1.57;;
4921;SDS011;16625;53.624;10.106;2023-03-11T13:57:11;4.43;;;2.90;;
4921;SDS011;16625;53.624;10.106;2023-03-11T13:59:50;7.07;;;1.80;;
4921;SDS011;16625;53.624;10.106;2023-03-11T14:02:18;4.20;;;1.80;;
4921;SDS011;16625;53.624;10.106;2023-03-11T14:04:50;3.73;;;2.13;;
4921;SDS011;16625;53.624;10.106;2023-03-11T14:07:22;2.90;;;2.07;;
4921;SDS011;16625;53.624;10.106;2023-03-11T14:13:03;2.30;;;2.07;;
4921;SDS011;16625;53.624;10.106;2023-03-11T14:15:42;3.80;;;1.70;;
4921;SDS011;16625;53.624;10.106;2023-03-11T14:21:14;2.90;;;1.80;;
4921;SDS011;16625;53.624;10.106;2023-03-11T14:23:44;1.60;;;1.50;;
4921;SDS011;16625;53.624;10.106;2023-03-11T14:26:14;2.40;;;1.80;;
4921;SDS011;16625;53.624;10.106;2023-03-11T14:28:44;3.20;;;2.37;;
4921;SDS011;16625;53.624;10.106;2023-03-11T14:31:24;7.80;;;2.03;;
4921;SDS011;16625;53.624;10.106;2023-03-11T14:33:56;2.67;;;1.80;;
4921;SDS011;16625;53.624;10.106;2023-03-11T14:36:30;4.13;;;2.47;;
4921;SDS011;16625;53.624;10.106;2023-03-11T14:39:04;3.30;;;2.10;;
4921;SDS011;16625;53.624;10.106;2023-03-11T14:41:31;4.47;;;2.20;;
4921;SDS011;16625;53.624;10.106;2023-03-11T14:44:02;3.37;;;1.63;;
4921;SDS011;16625;53.624;10.106;2023-03-11T14:46:29;6.93;;;2.37;;
4921;SDS011;16625;53.624;10.106;2023-03-11T14:48:56;1.90;;;1.67;;
4921;SDS011;16625;53.624;10.106;2023-03-11T14:51:26;4.10;;;1.83;;
4921;SDS011;16625;53.624;10.106;2023-03-11T14:54:01;3.20;;;2.23;;
4921;SDS011;16625;53.624;10.106;2023-03-11T14:56:34;2.13;;;1.93;;
4921;SDS011;16625;53.624;10.106;2023-03-11T14:59:05;5.50;;;2.30;;
4921;SDS011;16625;53.624;10.106;2023-03-11T15:01:44;6.20;;;2.00;;
4921;SDS011;16625;53.624;10.106;2023-03-11T15:04:13;2.43;;;1.60;;
4921;SDS011;16625;53.624;10.106;2023-03-11T15:06:48;6.57;;;1.83;;
4921;SDS011;16625;53.624;10.106;2023-03-11T15:09:17;3.57;;;1.90;;
4921;SDS011;16625;53.624;10.106;2023-03-11T15:11:46;6.73;;;2.57;;
4921;SDS011;16625;53.624;10.106;2023-03-11T15:14:22;4.20;;;2.20;;
4921;SDS011;16625;53.624;10.106;2023-03-11T15:16:51;3.93;;;2.23;;
4921;SDS011;16625;53.624;10.106;2023-03-11T15:19:19;2.10;;;1.70;;
4921;SDS011;16625;53.624;10.106;2023-03-11T15:21:48;2.10;;;1.90;;